»·PEaware :: UAL551 KJFK-KSFO

UAL551 :: KJFK-KSFO

FLIGHT INFORMATION

Flight Status: Arrived
Operator:
United Airlines
More flights by this operator :: More flights under this callsign
Pilot: James H. (174)
Aircraft: BOEING 767-300
(B763)
More flights by this aircraft type
Origin: KJFK Kennedy Intl
United States
Destination: KSFO San Francisco Intl
United States
More flights between these airports :: More routes between these airports
Route: +GREKI6 JFK J146 ETG J146 IDEAS UNBAR J584 OBK J100 DBQ J82 FOD Q122 ONL J94 OCS J154 TCH J56 MVA INYOE DYAMD5
File this flight plan on PilotEdge
Remarks: PBN / A1B1C1D1L1O1S1 NAV / RNVD1E2A1 DOF / 201111 REG / N656UA EET / KZOB0029 KZAU0113 KZMP0203 KZDV0242 KZLC0336 KZOA0440 RVR / 75 PER / D RMK / TCAS
Altitude:
(Current/Filed)
38,000ft
Speed:
(Current/Filed)
503kts
Departed: 11-Nov-20 12:22 PM
Arrived: 11-Nov-20 02:49 PM
Distance/Time
Traveled:
2241nm/2:27
Distance/Time
To Go:
Arrived

Flight Plot

Page will automatically refresh every two minutes.

Flight plan parsing failed; only flown route is shown


Map Options




Map Legend


Flown Route
Filed Route
Departure Airport
Arrival Airport
Navaid (VOR, NDB)
Fix

Horizontal Profiles

Position Reports

Time Latitude Longitude Heading Altitude Ground
Speed
11-Nov-20 12:20 41.990761 -102.787286 257 37938ft 405kts
11-Nov-20 12:21 41.970455 -102.935996 257 37938ft 404kts
11-Nov-20 12:22 41.949941 -103.084784 257 37936ft 404kts
11-Nov-20 12:23 41.929251 -103.233370 257 37932ft 405kts
11-Nov-20 12:24 41.908361 -103.381934 257 37929ft 406kts
11-Nov-20 12:25 41.891287 -103.532005 264 37929ft 409kts
11-Nov-20 12:26 41.887878 -103.685260 264 37928ft 411kts
11-Nov-20 12:27 41.882668 -103.838432 264 37924ft 411kts
11-Nov-20 12:28 41.877359 -103.992399 264 37914ft 412kts
11-Nov-20 12:29 41.871859 -104.145903 264 37907ft 412kts
11-Nov-20 12:30 41.866150 -104.299391 264 37902ft 412kts
11-Nov-20 12:31 41.860221 -104.453251 264 37901ft 411kts
11-Nov-20 12:32 41.854106 -104.606585 264 37899ft 412kts
11-Nov-20 12:33 41.847788 -104.759978 264 37896ft 412kts
11-Nov-20 12:34 41.841229 -104.914017 264 37885ft 413kts
11-Nov-20 12:35 41.834466 -105.068104 264 37882ft 415kts
11-Nov-20 12:36 41.827458 -105.223032 264 37882ft 416kts
11-Nov-20 12:37 41.820218 -105.378418 264 37883ft 418kts
11-Nov-20 12:38 41.812753 -105.534058 264 37882ft 421kts
11-Nov-20 12:39 41.804908 -105.693083 264 37879ft 425kts
11-Nov-20 12:44 41.771182 -106.331729 264 37863ft 429kts
11-Nov-20 12:45 41.762324 -106.488991 264 39443ft 423kts
11-Nov-20 12:46 41.753190 -106.647124 264 39868ft 426kts
11-Nov-20 12:47 41.743837 -106.805527 263 39908ft 424kts
11-Nov-20 12:48 41.734351 -106.962341 263 39908ft 422kts
11-Nov-20 12:49 41.724651 -107.119172 263 39909ft 421kts
11-Nov-20 12:50 41.714799 -107.275003 263 39909ft 420kts
11-Nov-20 12:51 41.704725 -107.431007 263 39909ft 419kts
11-Nov-20 12:52 41.694452 -107.586625 263 39907ft 419kts
11-Nov-20 12:53 41.684009 -107.741782 263 39905ft 419kts
11-Nov-20 12:53 41.675123 -107.871313 263 39904ft 420kts
11-Nov-20 12:55 41.662450 -108.052477 263 39904ft 419kts
11-Nov-20 12:56 41.651375 -108.207496 263 39909ft 419kts
11-Nov-20 12:57 41.640044 -108.363111 263 39913ft 419kts
11-Nov-20 12:57 41.630476 -108.492267 263 39916ft 419kts
11-Nov-20 12:59 41.616849 -108.672915 263 39920ft 419kts
11-Nov-20 12:59 41.606893 -108.802494 263 39924ft 420kts
11-Nov-20 13:01 41.592745 -108.983480 263 39928ft 421kts
11-Nov-20 13:01 41.569540 -109.110231 252 39929ft 422kts
11-Nov-20 13:02 41.532644 -109.259218 253 39929ft 423kts
11-Nov-20 13:03 41.497433 -109.408699 253 39934ft 424kts
11-Nov-20 13:04 41.461549 -109.558902 253 39938ft 425kts
11-Nov-20 13:05 41.425414 -109.709275 253 39943ft 426kts
11-Nov-20 13:06 41.389136 -109.859254 253 39946ft 426kts
11-Nov-20 13:07 41.352525 -110.009643 253 39949ft 426kts
11-Nov-20 13:08 41.315779 -110.159615 253 39951ft 427kts
11-Nov-20 13:09 41.278798 -110.309566 253 39953ft 426kts
11-Nov-20 13:10 41.241645 -110.459275 253 39959ft 425kts
11-Nov-20 13:11 41.204545 -110.607820 253 39974ft 424kts
11-Nov-20 13:12 41.167129 -110.756695 253 39971ft 424kts
11-Nov-20 13:13 41.129647 -110.904910 253 39970ft 423kts
11-Nov-20 13:14 41.092042 -111.052695 253 39973ft 423kts
11-Nov-20 13:15 41.054236 -111.200350 253 39989ft 423kts
11-Nov-20 13:16 41.016100 -111.348397 253 40014ft 423kts
11-Nov-20 13:17 40.977993 -111.495412 253 40042ft 422kts
11-Nov-20 13:18 40.939649 -111.642464 253 40063ft 422kts
11-Nov-20 13:19 40.901208 -111.789008 253 40076ft 422kts
11-Nov-20 13:20 40.862540 -111.935529 253 40086ft 421kts
11-Nov-20 13:21 40.817983 -112.078842 248 40087ft 422kts
11-Nov-20 13:22 40.769121 -112.219352 249 40085ft 421kts
11-Nov-20 13:23 40.720929 -112.360022 248 40081ft 421kts
11-Nov-20 13:24 40.672297 -112.500856 248 40079ft 421kts
11-Nov-20 13:25 40.623714 -112.640899 248 40080ft 421kts
11-Nov-20 13:26 40.574863 -112.781017 248 40078ft 421kts
11-Nov-20 13:27 40.525958 -112.920544 248 40072ft 412kts
11-Nov-20 13:28 40.478051 -113.056680 248 40077ft 410kts
11-Nov-20 13:29 40.430123 -113.192179 248 40077ft 409kts
11-Nov-20 13:30 40.381998 -113.327589 248 40077ft 408kts
11-Nov-20 13:31 40.333822 -113.462507 248 40078ft 408kts
11-Nov-20 13:32 40.285624 -113.596864 248 40077ft 407kts
11-Nov-20 13:33 40.237354 -113.730798 248 40077ft 406kts
11-Nov-20 13:34 40.189021 -113.864280 248 40076ft 405kts
11-Nov-20 13:35 40.140633 -113.997318 248 40075ft 405kts
11-Nov-20 13:36 40.088080 -114.127996 244 40075ft 407kts
11-Nov-20 13:37 40.031719 -114.256249 244 40074ft 407kts
11-Nov-20 13:38 39.975042 -114.384509 244 40073ft 408kts
11-Nov-20 13:39 39.918273 -114.512407 244 40071ft 407kts
11-Nov-20 13:40 39.861346 -114.640162 244 40068ft 407kts
11-Nov-20 13:41 39.804493 -114.767233 244 40065ft 407kts
11-Nov-20 13:42 39.747503 -114.894091 244 40065ft 407kts
11-Nov-20 13:43 39.690116 -115.021318 244 40067ft 407kts
11-Nov-20 13:44 39.632928 -115.147590 244 40067ft 407kts
11-Nov-20 13:45 39.575341 -115.274244 244 40067ft 407kts
11-Nov-20 13:46 39.517516 -115.400908 244 40069ft 407kts
11-Nov-20 13:47 39.459812 -115.526794 244 40071ft 407kts
11-Nov-20 13:48 39.401677 -115.653116 243 40074ft 407kts
11-Nov-20 13:49 39.343453 -115.779127 243 40076ft 407kts
11-Nov-20 13:50 39.285372 -115.904316 243 40077ft 407kts
11-Nov-20 13:51 39.226994 -116.029647 244 40080ft 407kts
11-Nov-20 13:52 39.168751 -116.154191 244 40084ft 406kts
11-Nov-20 13:53 39.110342 -116.278616 244 40085ft 405kts
11-Nov-20 13:54 39.052061 -116.402284 244 40087ft 404kts
11-Nov-20 13:55 38.993604 -116.525850 244 40089ft 403kts
11-Nov-20 13:56 38.935337 -116.648547 244 40091ft 402kts
11-Nov-20 13:57 38.877085 -116.770747 244 40092ft 401kts
11-Nov-20 13:58 38.818581 -116.893016 244 40093ft 400kts
11-Nov-20 13:59 38.760202 -117.014583 244 40096ft 400kts
11-Nov-20 14:00 38.701768 -117.135807 244 40102ft 400kts
11-Nov-20 14:01 38.643179 -117.256891 244 40105ft 399kts
11-Nov-20 14:02 38.584690 -117.377317 244 40106ft 398kts
11-Nov-20 14:03 38.526382 -117.496932 244 40101ft 396kts
11-Nov-20 14:04 38.468098 -117.616068 244 40098ft 395kts
11-Nov-20 14:05 38.409834 -117.734744 244 40099ft 394kts
11-Nov-20 14:06 38.351613 -117.852932 244 40100ft 394kts
11-Nov-20 14:07 38.293339 -117.970796 244 40102ft 393kts
11-Nov-20 14:08 38.234927 -118.088543 244 40102ft 392kts
11-Nov-20 14:09 38.176613 -118.205685 244 40102ft 392kts
11-Nov-20 14:10 38.118072 -118.322917 243 40116ft 393kts
11-Nov-20 14:11 38.058613 -118.441779 243 40110ft 410kts
11-Nov-20 14:12 37.996022 -118.566422 243 39382ft 412kts
11-Nov-20 14:13 37.937392 -118.681927 244 38037ft 377kts
11-Nov-20 14:14 37.896004 -118.797566 263 36242ft 349kts
11-Nov-20 14:15 37.881465 -118.919885 264 33288ft 360kts
11-Nov-20 14:16 37.866639 -119.047184 264 32027ft 368kts
11-Nov-20 14:17 37.851429 -119.176408 263 31030ft 373kts
11-Nov-20 14:18 37.835849 -119.307393 263 30030ft 375kts
11-Nov-20 14:19 37.820251 -119.437036 263 29057ft 376kts
11-Nov-20 14:20 37.804085 -119.570554 263 28554ft 388kts
11-Nov-20 14:21 37.787567 -119.705023 263 28049ft 384kts
11-Nov-20 14:22 37.771010 -119.838727 263 27550ft 383kts
11-Nov-20 14:23 37.754410 -119.971431 263 27154ft 383kts
11-Nov-20 14:24 37.737543 -120.105077 263 27134ft 384kts
11-Nov-20 14:25 37.720613 -120.237986 263 27138ft 385kts
11-Nov-20 14:27 37.703433 -120.371479 262 27136ft 383kts
11-Nov-20 14:28 37.687462 -120.503457 263 26987ft 374kts
11-Nov-20 14:29 37.672856 -120.628912 263 25898ft 360kts
11-Nov-20 14:30 37.658212 -120.753889 263 24251ft 358kts
11-Nov-20 14:31 37.643302 -120.877819 263 22699ft 355kts
11-Nov-20 14:32 37.628110 -121.000270 262 21236ft 351kts
11-Nov-20 14:33 37.611919 -121.120563 262 19886ft 339kts
11-Nov-20 14:34 37.596083 -121.238415 262 17588ft 341kts
11-Nov-20 14:35 37.582063 -121.355602 263 15582ft 335kts
11-Nov-20 14:36 37.569054 -121.468251 263 14531ft 303kts
11-Nov-20 14:37 37.557053 -121.571417 263 12628ft 290kts
11-Nov-20 14:38 37.540280 -121.671036 253 10950ft 282kts
11-Nov-20 14:39 37.518119 -121.761605 254 9990ft 267kts
11-Nov-20 14:40 37.496726 -121.850827 254 8763ft 263kts
11-Nov-20 14:40 37.478316 -121.922817 252 6992ft 254kts
11-Nov-20 14:42 37.474170 -122.019545 289 5071ft 234kts
11-Nov-20 14:42 37.495825 -122.081091 297 4640ft 231kts
11-Nov-20 14:44 37.530580 -122.165161 298 3394ft 234kts
11-Nov-20 14:45 37.560688 -122.236865 298 2147ft 209kts
11-Nov-20 14:46 37.585496 -122.295910 299 1149ft 169kts
11-Nov-20 14:46 37.602311 -122.335943 300 432ft 139kts
11-Nov-20 14:47 37.618630 -122.374703 298 28ft 76kts
11-Nov-20 14:48 37.619217 -122.379953 230 27ft 8kts
11-Nov-20 14:49 37.619817 -122.382374 297 27ft 8kts
11-Nov-20 14:50 37.620185 -122.383278 297 27ft 0kts
11-Nov-20 14:51 37.620239 -122.383422 291 27ft 4kts
11-Nov-20 14:52 37.619827 -122.384044 209 27ft 0kts
11-Nov-20 14:53 37.619827 -122.384044 209 27ft 0kts
11-Nov-20 14:54 37.619827 -122.384044 209 27ft 0kts
11-Nov-20 14:55 37.619827 -122.384044 209 27ft 0kts
11-Nov-20 14:56 37.619827 -122.384044 209 27ft 0kts

Navigation Log

Ident Type
Flight plan parsing failed, navigation log unavailable